Pinon Canyon, Colorado
Current Conditions -  °F | °C
As of 9:04 AM on Monday 22 Dec 2014 (Local Time) from KTAD Reporting Station
Moderate Snow Moderate Snow  
Wind Chill: 24°   Ceiling: 1600
Heat Index: 31°   Visibility: 0.5mi
Dew Point: 30°   Wind: 7mph
Humidity: 96%   Direction: 180°S
Pressure: 29.8"   Gusts: NA
Location:  37.1661°N, 104.486°W
Report Text: KTAD 221604Z AUTO 18006KT 1/2SM SN FZFG VV016 M01/M01 A2980 RMK AO2 P0000 T10061011
Loading
Personal Weather Stations






























Interactive Weather Map New forecast layout! Learn more

10-Day Weather Forecast

Advertisements
Track Severe Weather on mobile